Home > Products > Valid Products > TAF

000
FTUS44 KSJT 291100
TAFSJT
TAF
KSJT 291120Z 2912/3012 07005KT P6SM SCT120
     FM291400 12008KT P6SM SCT120
     FM291800 12008KT P6SM SCT070=



000
FTUS44 KSJT 291100
TAFABI
TAF
KABI 291120Z 2912/3012 08006KT P6SM SCT120
     FM291400 10008KT P6SM SCT120
     FM291800 13009KT P6SM SCT060 SCT120=



000
FTUS44 KSJT 291100
TAFJCT
TAF
KJCT 291120Z 2912/3012 VRB03KT P6SM FEW120
     FM291800 12008KT P6SM SCT060 SCT120=



000
FTUS44 KSJT 290500
TAFSJT
TAF
KSJT 290520Z 2906/3006 07009KT P6SM SCT120
     FM291400 15008KT P6SM SCT120
     FM291800 12008KT P6SM SCT070=



000
FTUS44 KSJT 290500
TAFJCT
TAF
KJCT 290520Z 2906/3006 VRB03KT P6SM FEW120
     FM291800 13008KT P6SM SCT060 SCT120=



000
FTUS44 KSJT 290500
TAFABI
TAF
KABI 290520Z 2906/3006 08006KT P6SM SCT120
     FM291400 15008KT P6SM SCT120
     FM291800 15009KT P6SM SCT060 SCT120=



000
FTUS44 KSJT 290200 AAA
TAFSJT
TAF AMD
KSJT 290204Z 2902/2924 07010G18KT P6SM FEW100
     FM290300 07009KT P6SM FEW100
     FM291400 15008KT P6SM SCT120=



000
FTUS44 KSJT 282300
TAFSJT
TAF
KSJT 282320Z 2900/2924 06010KT P6SM FEW080 FEW100
      TEMPO 2900/2902 04015G22KT
     FM290200 07006KT P6SM FEW100
     FM291400 15008KT P6SM SCT120=



000
FTUS44 KSJT 282300
TAFJCT
TAF
KJCT 282320Z 2900/2924 11008KT P6SM FEW080 FEW100
     FM290100 11007KT P6SM FEW100
     FM291600 15009KT P6SM SCT120=



000
FTUS44 KSJT 282300
TAFABI
TAF
KABI 282320Z 2900/2924 08011KT P6SM SCT070 BKN100
     FM290200 08006KT P6SM FEW100
     FM291400 15008KT P6SM SCT120=



000
FTUS44 KSJT 282100 AAB
TAFABI
TAF AMD
KABI 282118Z 2821/2918 06011KT P6SM VCTS SCT090CB
      TEMPO 2821/2823 06015G24KT
     FM282300 02011KT P6SM SCT090
     FM290100 07006KT P6SM FEW090=



000
FTUS44 KSJT 281800 AAA
TAFABI
TAF AMD
KABI 281839Z 2819/2918 02011KT P6SM VCTS SCT090CB
      TEMPO 2819/2823 VRB10G45KT 5SM -TSRA BKN080CB
     FM282300 02011KT P6SM SCT090
     FM290100 07006KT P6SM FEW090=



000
FTUS44 KSJT 281700
TAFABI
TAF
KABI 281720Z 2818/2918 02011KT P6SM SCT090
     FM282100 02011KT P6SM VCSH SCT090
     FM290100 07006KT P6SM FEW090=



000
FTUS44 KSJT 281700
TAFSJT
TAF
KSJT 281720Z 2818/2918 06010KT P6SM FEW100=



000
FTUS44 KSJT 281700
TAFJCT
TAF
KJCT 281720Z 2818/2918 VRB05KT P6SM FEW100=



000
FTUS44 KSJT 281100
TAFABI
TAF
KABI 281120Z 2812/2912 14007KT P6SM SKC
     FM281400 06010KT P6SM SCT050=



000
FTUS44 KSJT 281100
TAFSJT
TAF
KSJT 281120Z 2812/2912 17007KT P6SM SKC
     FM282100 06012KT P6SM SKC=



000
FTUS44 KSJT 281100
TAFJCT
TAF
KJCT 281120Z 2812/2912 VRB05KT P6SM SKC=



000
FTUS44 KSJT 280500
TAFABI
TAF
KABI 280520Z 2806/2906 16007KT P6SM SKC
     FM281400 04008KT P6SM SCT050=



000
FTUS44 KSJT 280500
TAFJCT
TAF
KJCT 280520Z 2806/2906 17004KT P6SM SKC
     FM281800 11008KT P6SM FEW060=



000
FTUS44 KSJT 280500
TAFSJT
TAF
KSJT 280520Z 2806/2906 16006KT P6SM SKC
     FM281800 08009KT P6SM SCT070=



000
FTUS44 KSJT 272300
TAFJCT
TAF
KJCT 272325Z 2800/2824 16009KT P6SM SKC
     FM281800 12008KT P6SM FEW060=



000
FTUS44 KSJT 272300
TAFABI
TAF
KABI 272325Z 2800/2824 15008KT P6SM FEW090
     FM280100 15007KT P6SM SKC
     FM281400 03007KT P6SM SCT050=



000
FTUS44 KSJT 272300
TAFSJT
TAF
KSJT 272325Z 2800/2824 15006KT P6SM SKC
     FM281800 06010KT P6SM SCT070=



000
FTUS44 KSJT 271700
TAFABI
TAF
KABI 271720Z 2718/2818 18009KT P6SM FEW080=



000
FTUS44 KSJT 271700
TAFSJT
TAF
KSJT 271720Z 2718/2818 18010G16KT P6SM FEW080
     FM272300 17006KT P6SM SKC=



000
FTUS44 KSJT 271700
TAFJCT
TAF
KJCT 271720Z 2718/2818 16010G16KT P6SM FEW080
     FM280000 16005KT P6SM SKC=



000
FTUS44 KSJT 271100
TAFJCT
TAF
KJCT 271120Z 2712/2812 14006KT P6SM SKC
     FM271500 15009KT P6SM SKC
     FM271900 15009G15KT P6SM SKC
     FM280000 15006KT P6SM SKC=



000
FTUS44 KSJT 271100
TAFSJT
TAF
KSJT 271120Z 2712/2812 17008KT P6SM SKC
     FM271800 15008G15KT P6SM SKC
     FM272300 15006KT P6SM SKC=



000
FTUS44 KSJT 271100
TAFABI
TAF
KABI 271120Z 2712/2812 18009KT P6SM SKC
     FM271400 17007KT P6SM SKC=



000
FTUS44 KSJT 270500
TAFSJT
TAF
KSJT 270520Z 2706/2806 18008KT P6SM SKC
     FM271800 15009KT P6SM FEW070=



000
FTUS44 KSJT 270500
TAFJCT
TAF
KJCT 270520Z 2706/2806 16004KT P6SM SKC
     FM271800 16010KT P6SM FEW060=



000
FTUS44 KSJT 270500
TAFABI
TAF
KABI 270520Z 2706/2806 17011KT P6SM SKC
     FM271800 16007KT P6SM FEW070=



000
FTUS44 KSJT 262300
TAFSJT
TAF
KSJT 262320Z 2700/2724 18011G18KT P6SM FEW080
     FM270100 17008KT P6SM SKC
     FM271800 15009KT P6SM FEW070=



000
FTUS44 KSJT 262300
TAFABI
TAF
KABI 262320Z 2700/2724 18011G18KT P6SM FEW080
     FM270200 17009KT P6SM SKC
     FM271800 15007KT P6SM FEW070=



000
FTUS44 KSJT 262300
TAFJCT
TAF
KJCT 262320Z 2700/2724 17010KT P6SM FEW080
     FM271800 16008KT P6SM FEW060=



000
FTUS44 KSJT 261900 AAA
TAFJCT
TAF AMD
KJCT 261956Z 2620/2718 17010G16KT P6SM FEW070
     FM270200 16008KT P6SM SKC=



000
FTUS44 KSJT 261700
TAFJCT
TAF
KJCT 261720Z 2618/2718 17012G20KT P6SM FEW070
     FM270200 16008KT P6SM SKC=



000
FTUS44 KSJT 261700
TAFSJT
TAF
KSJT 261720Z 2618/2718 18011G19KT P6SM FEW080
     FM270100 17009KT P6SM SKC=



000
FTUS44 KSJT 261700
TAFABI
TAF
KABI 261720Z 2618/2718 18011G19KT P6SM FEW080
     FM270100 17009KT P6SM SKC=



    US Dept of Commerce
    National Oceanic and Atmospheric Administration
    National Weather Service
    1325 East West Highway
    Silver Spring, MD 20910
    Page Author: NWS Internet Services Team
Disclaimer
Information Quality
Credits
Glossary
Privacy Policy
Freedom of Information Act (FOIA)
About Us
Career Opportunities